sensor_id;sensor_type;location;lat;lon;timestamp;P1;durP1;ratioP1;P2;durP2;ratioP2
43646;SDS011;56152;49.996;18.980;2024-02-15T00:04:27;26.67;;;12.77;;
43646;SDS011;56152;49.996;18.980;2024-02-15T00:09:29;29.63;;;12.18;;
43646;SDS011;56152;49.996;18.980;2024-02-15T00:14:33;29.10;;;14.45;;
43646;SDS011;56152;49.996;18.980;2024-02-15T00:19:38;32.47;;;15.55;;
43646;SDS011;56152;49.996;18.980;2024-02-15T00:24:41;26.48;;;14.48;;
43646;SDS011;56152;49.996;18.980;2024-02-15T00:29:51;27.17;;;13.70;;
43646;SDS011;56152;49.996;18.980;2024-02-15T00:34:54;35.22;;;17.02;;
43646;SDS011;56152;49.996;18.980;2024-02-15T00:39:57;28.60;;;14.75;;
43646;SDS011;56152;49.996;18.980;2024-02-15T00:45:01;35.17;;;15.77;;
43646;SDS011;56152;49.996;18.980;2024-02-15T00:50:04;32.33;;;17.60;;
43646;SDS011;56152;49.996;18.980;2024-02-15T00:55:07;33.58;;;16.92;;
43646;SDS011;56152;49.996;18.980;2024-02-15T01:00:22;31.67;;;17.25;;
43646;SDS011;56152;49.996;18.980;2024-02-15T01:05:24;39.85;;;17.45;;
43646;SDS011;56152;49.996;18.980;2024-02-15T01:10:28;34.90;;;15.93;;
43646;SDS011;56152;49.996;18.980;2024-02-15T01:15:32;28.48;;;14.68;;
43646;SDS011;56152;49.996;18.980;2024-02-15T01:20:37;28.10;;;12.98;;
43646;SDS011;56152;49.996;18.980;2024-02-15T01:25:41;28.05;;;13.48;;
43646;SDS011;56152;49.996;18.980;2024-02-15T01:30:45;25.77;;;12.75;;
43646;SDS011;56152;49.996;18.980;2024-02-15T01:35:49;25.90;;;12.52;;
43646;SDS011;56152;49.996;18.980;2024-02-15T01:40:54;27.73;;;12.43;;
43646;SDS011;56152;49.996;18.980;2024-02-15T01:45:59;29.27;;;13.48;;
43646;SDS011;56152;49.996;18.980;2024-02-15T01:51:15;29.55;;;14.30;;
43646;SDS011;56152;49.996;18.980;2024-02-15T01:56:19;23.55;;;13.07;;
43646;SDS011;56152;49.996;18.980;2024-02-15T02:01:28;21.50;;;9.07;;
43646;SDS011;56152;49.996;18.980;2024-02-15T02:06:32;18.52;;;9.27;;
43646;SDS011;56152;49.996;18.980;2024-02-15T02:11:35;16.65;;;7.72;;
43646;SDS011;56152;49.996;18.980;2024-02-15T02:16:39;14.75;;;8.40;;
43646;SDS011;56152;49.996;18.980;2024-02-15T02:21:41;16.83;;;8.73;;
43646;SDS011;56152;49.996;18.980;2024-02-15T02:26:52;14.18;;;7.82;;
43646;SDS011;56152;49.996;18.980;2024-02-15T02:32:07;20.27;;;9.20;;
43646;SDS011;56152;49.996;18.980;2024-02-15T02:37:09;15.35;;;8.32;;
43646;SDS011;56152;49.996;18.980;2024-02-15T02:42:17;16.77;;;9.95;;
43646;SDS011;56152;49.996;18.980;2024-02-15T02:47:19;18.27;;;8.85;;
43646;SDS011;56152;49.996;18.980;2024-02-15T02:52:24;14.38;;;8.63;;
43646;SDS011;56152;49.996;18.980;2024-02-15T02:57:28;18.52;;;11.10;;
43646;SDS011;56152;49.996;18.980;2024-02-15T03:02:32;23.17;;;11.82;;
43646;SDS011;56152;49.996;18.980;2024-02-15T03:07:35;20.73;;;9.63;;
43646;SDS011;56152;49.996;18.980;2024-02-15T03:12:42;25.33;;;12.30;;
43646;SDS011;56152;49.996;18.980;2024-02-15T03:17:47;22.88;;;11.10;;
43646;SDS011;56152;49.996;18.980;2024-02-15T03:22:57;33.42;;;13.35;;
43646;SDS011;56152;49.996;18.980;2024-02-15T03:33:12;24.20;;;11.00;;
43646;SDS011;56152;49.996;18.980;2024-02-15T03:38:18;25.90;;;11.30;;
43646;SDS011;56152;49.996;18.980;2024-02-15T03:43:23;24.38;;;11.15;;
43646;SDS011;56152;49.996;18.980;2024-02-15T03:48:25;24.27;;;10.95;;
43646;SDS011;56152;49.996;18.980;2024-02-15T03:53:28;19.13;;;11.45;;
43646;SDS011;56152;49.996;18.980;2024-02-15T03:58:35;31.70;;;14.00;;
43646;SDS011;56152;49.996;18.980;2024-02-15T04:03:39;28.48;;;14.77;;
43646;SDS011;56152;49.996;18.980;2024-02-15T04:08:44;30.98;;;15.43;;
43646;SDS011;56152;49.996;18.980;2024-02-15T04:13:49;41.67;;;20.42;;
43646;SDS011;56152;49.996;18.980;2024-02-15T04:18:51;36.63;;;19.83;;
43646;SDS011;56152;49.996;18.980;2024-02-15T04:23:53;37.55;;;18.83;;
43646;SDS011;56152;49.996;18.980;2024-02-15T04:28:58;40.67;;;21.52;;
43646;SDS011;56152;49.996;18.980;2024-02-15T04:34:00;45.08;;;23.98;;
43646;SDS011;56152;49.996;18.980;2024-02-15T04:39:05;42.40;;;24.02;;
43646;SDS011;56152;49.996;18.980;2024-02-15T04:44:11;51.40;;;29.05;;
43646;SDS011;56152;49.996;18.980;2024-02-15T04:49:13;51.28;;;33.28;;
43646;SDS011;56152;49.996;18.980;2024-02-15T04:54:15;45.75;;;27.52;;
43646;SDS011;56152;49.996;18.980;2024-02-15T04:59:20;51.38;;;30.80;;
43646;SDS011;56152;49.996;18.980;2024-02-15T05:04:25;54.47;;;31.42;;
43646;SDS011;56152;49.996;18.980;2024-02-15T05:09:28;56.47;;;32.53;;
43646;SDS011;56152;49.996;18.980;2024-02-15T05:14:33;50.92;;;31.02;;
43646;SDS011;56152;49.996;18.980;2024-02-15T05:19:37;63.67;;;35.55;;
43646;SDS011;56152;49.996;18.980;2024-02-15T05:24:39;70.95;;;38.30;;
43646;SDS011;56152;49.996;18.980;2024-02-15T05:29:44;72.72;;;37.83;;
43646;SDS011;56152;49.996;18.980;2024-02-15T05:34:46;67.68;;;38.08;;
43646;SDS011;56152;49.996;18.980;2024-02-15T05:39:48;77.53;;;42.00;;
43646;SDS011;56152;49.996;18.980;2024-02-15T05:44:57;66.82;;;35.42;;
43646;SDS011;56152;49.996;18.980;2024-02-15T05:50:33;75.63;;;38.85;;
43646;SDS011;56152;49.996;18.980;2024-02-15T05:55:36;56.30;;;32.50;;
43646;SDS011;56152;49.996;18.980;2024-02-15T06:00:46;51.60;;;30.08;;
43646;SDS011;56152;49.996;18.980;2024-02-15T06:05:50;52.30;;;32.40;;
43646;SDS011;56152;49.996;18.980;2024-02-15T06:10:58;55.60;;;30.45;;
43646;SDS011;56152;49.996;18.980;2024-02-15T06:16:04;43.22;;;26.13;;
43646;SDS011;56152;49.996;18.980;2024-02-15T06:21:17;42.67;;;25.17;;
43646;SDS011;56152;49.996;18.980;2024-02-15T06:26:20;37.17;;;21.80;;
43646;SDS011;56152;49.996;18.980;2024-02-15T06:31:25;35.70;;;20.25;;
43646;SDS011;56152;49.996;18.980;2024-02-15T06:36:45;34.45;;;19.40;;
43646;SDS011;56152;49.996;18.980;2024-02-15T06:42:18;36.22;;;18.98;;
43646;SDS011;56152;49.996;18.980;2024-02-15T06:47:24;52.60;;;28.58;;
43646;SDS011;56152;49.996;18.980;2024-02-15T06:52:26;50.72;;;29.20;;
43646;SDS011;56152;49.996;18.980;2024-02-15T06:57:30;51.45;;;28.02;;
43646;SDS011;56152;49.996;18.980;2024-02-15T07:02:36;62.22;;;32.45;;
43646;SDS011;56152;49.996;18.980;2024-02-15T07:07:39;55.78;;;30.23;;
43646;SDS011;56152;49.996;18.980;2024-02-15T07:12:42;66.25;;;34.33;;
43646;SDS011;56152;49.996;18.980;2024-02-15T07:17:48;63.05;;;30.88;;
43646;SDS011;56152;49.996;18.980;2024-02-15T07:22:54;93.03;;;44.10;;
43646;SDS011;56152;49.996;18.980;2024-02-15T07:28:01;61.17;;;33.15;;
43646;SDS011;56152;49.996;18.980;2024-02-15T07:33:13;55.97;;;30.13;;
43646;SDS011;56152;49.996;18.980;2024-02-15T07:38:17;50.25;;;27.65;;
43646;SDS011;56152;49.996;18.980;2024-02-15T07:43:22;53.80;;;28.48;;
43646;SDS011;56152;49.996;18.980;2024-02-15T07:48:26;48.63;;;26.75;;
43646;SDS011;56152;49.996;18.980;2024-02-15T07:53:28;54.35;;;24.00;;
43646;SDS011;56152;49.996;18.980;2024-02-15T07:58:31;48.53;;;26.65;;
43646;SDS011;56152;49.996;18.980;2024-02-15T08:03:35;59.15;;;32.60;;
43646;SDS011;56152;49.996;18.980;2024-02-15T08:08:45;72.28;;;39.28;;
43646;SDS011;56152;49.996;18.980;2024-02-15T08:13:55;64.32;;;33.83;;
43646;SDS011;56152;49.996;18.980;2024-02-15T08:19:01;69.38;;;34.55;;
43646;SDS011;56152;49.996;18.980;2024-02-15T08:24:07;44.70;;;26.73;;
43646;SDS011;56152;49.996;18.980;2024-02-15T08:29:13;50.65;;;26.52;;
43646;SDS011;56152;49.996;18.980;2024-02-15T08:34:18;44.50;;;23.48;;
43646;SDS011;56152;49.996;18.980;2024-02-15T08:39:20;43.53;;;22.60;;
43646;SDS011;56152;49.996;18.980;2024-02-15T08:44:23;34.88;;;18.85;;
43646;SDS011;56152;49.996;18.980;2024-02-15T08:49:30;28.83;;;14.90;;
43646;SDS011;56152;49.996;18.980;2024-02-15T08:54:31;23.02;;;11.65;;
43646;SDS011;56152;49.996;18.980;2024-02-15T08:59:40;20.60;;;10.73;;
43646;SDS011;56152;49.996;18.980;2024-02-15T09:04:48;21.17;;;10.95;;
43646;SDS011;56152;49.996;18.980;2024-02-15T09:14:57;16.33;;;8.52;;
43646;SDS011;56152;49.996;18.980;2024-02-15T09:20:02;18.58;;;8.02;;
43646;SDS011;56152;49.996;18.980;2024-02-15T09:25:05;12.30;;;6.72;;
43646;SDS011;56152;49.996;18.980;2024-02-15T09:30:13;8.93;;;5.47;;
43646;SDS011;56152;49.996;18.980;2024-02-15T09:35:19;9.25;;;4.22;;
43646;SDS011;56152;49.996;18.980;2024-02-15T09:40:25;8.48;;;3.80;;
43646;SDS011;56152;49.996;18.980;2024-02-15T09:45:29;5.45;;;3.05;;
43646;SDS011;56152;49.996;18.980;2024-02-15T09:50:35;3.28;;;2.10;;
43646;SDS011;56152;49.996;18.980;2024-02-15T09:55:42;7.85;;;2.80;;
43646;SDS011;56152;49.996;18.980;2024-02-15T10:00:45;4.57;;;2.55;;
43646;SDS011;56152;49.996;18.980;2024-02-15T10:05:51;4.72;;;2.40;;
43646;SDS011;56152;49.996;18.980;2024-02-15T10:11:06;9.13;;;2.63;;
43646;SDS011;56152;49.996;18.980;2024-02-15T10:16:15;5.53;;;2.50;;
43646;SDS011;56152;49.996;18.980;2024-02-15T10:21:26;8.18;;;2.13;;
43646;SDS011;56152;49.996;18.980;2024-02-15T10:26:29;4.80;;;2.55;;
43646;SDS011;56152;49.996;18.980;2024-02-15T10:31:32;5.00;;;2.45;;
43646;SDS011;56152;49.996;18.980;2024-02-15T10:36:39;5.20;;;2.78;;
43646;SDS011;56152;49.996;18.980;2024-02-15T10:41:41;5.35;;;2.80;;
43646;SDS011;56152;49.996;18.980;2024-02-15T10:46:46;7.30;;;2.60;;
43646;SDS011;56152;49.996;18.980;2024-02-15T10:51:54;6.95;;;2.90;;
43646;SDS011;56152;49.996;18.980;2024-02-15T10:57:00;3.80;;;2.40;;
43646;SDS011;56152;49.996;18.980;2024-02-15T11:02:28;3.03;;;2.30;;
43646;SDS011;56152;49.996;18.980;2024-02-15T11:07:38;5.28;;;2.72;;
43646;SDS011;56152;49.996;18.980;2024-02-15T11:12:47;3.53;;;2.28;;
43646;SDS011;56152;49.996;18.980;2024-02-15T11:17:50;4.25;;;2.40;;
43646;SDS011;56152;49.996;18.980;2024-02-15T11:22:58;7.05;;;3.47;;
43646;SDS011;56152;49.996;18.980;2024-02-15T11:33:43;6.82;;;3.25;;
43646;SDS011;56152;49.996;18.980;2024-02-15T11:38:49;5.32;;;3.40;;
43646;SDS011;56152;49.996;18.980;2024-02-15T11:43:51;7.78;;;3.30;;
43646;SDS011;56152;49.996;18.980;2024-02-15T11:48:58;6.05;;;3.22;;
43646;SDS011;56152;49.996;18.980;2024-02-15T11:54:03;9.15;;;3.78;;
43646;SDS011;56152;49.996;18.980;2024-02-15T11:59:07;6.85;;;4.15;;
43646;SDS011;56152;49.996;18.980;2024-02-15T12:04:13;10.30;;;4.18;;
43646;SDS011;56152;49.996;18.980;2024-02-15T12:09:59;6.22;;;3.83;;
43646;SDS011;56152;49.996;18.980;2024-02-15T12:15:19;5.38;;;3.63;;
43646;SDS011;56152;49.996;18.980;2024-02-15T12:20:35;5.75;;;3.35;;
43646;SDS011;56152;49.996;18.980;2024-02-15T12:25:39;7.22;;;3.63;;
43646;SDS011;56152;49.996;18.980;2024-02-15T12:30:41;4.40;;;2.40;;
43646;SDS011;56152;49.996;18.980;2024-02-15T12:35:44;6.60;;;3.00;;
43646;SDS011;56152;49.996;18.980;2024-02-15T12:40:49;4.90;;;2.85;;
43646;SDS011;56152;49.996;18.980;2024-02-15T12:45:51;7.45;;;3.08;;
43646;SDS011;56152;49.996;18.980;2024-02-15T12:50:54;5.10;;;2.88;;
43646;SDS011;56152;49.996;18.980;2024-02-15T12:55:59;3.40;;;2.30;;
43646;SDS011;56152;49.996;18.980;2024-02-15T13:01:02;3.90;;;3.00;;
43646;SDS011;56152;49.996;18.980;2024-02-15T13:06:05;6.28;;;2.97;;
43646;SDS011;56152;49.996;18.980;2024-02-15T13:11:10;11.82;;;4.68;;
43646;SDS011;56152;49.996;18.980;2024-02-15T13:16:13;10.57;;;6.13;;
43646;SDS011;56152;49.996;18.980;2024-02-15T13:21:17;6.50;;;4.13;;
43646;SDS011;56152;49.996;18.980;2024-02-15T13:26:23;6.78;;;3.35;;
43646;SDS011;56152;49.996;18.980;2024-02-15T13:31:30;7.90;;;3.92;;
43646;SDS011;56152;49.996;18.980;2024-02-15T13:36:35;6.97;;;3.33;;
43646;SDS011;56152;49.996;18.980;2024-02-15T13:41:40;13.00;;;6.40;;
43646;SDS011;56152;49.996;18.980;2024-02-15T13:46:41;9.30;;;4.75;;
43646;SDS011;56152;49.996;18.980;2024-02-15T13:51:45;6.93;;;4.13;;
43646;SDS011;56152;49.996;18.980;2024-02-15T13:56:53;9.27;;;5.15;;
43646;SDS011;56152;49.996;18.980;2024-02-15T14:01:56;8.98;;;5.10;;
43646;SDS011;56152;49.996;18.980;2024-02-15T14:07:04;10.10;;;5.20;;
43646;SDS011;56152;49.996;18.980;2024-02-15T14:12:09;18.05;;;7.53;;
43646;SDS011;56152;49.996;18.980;2024-02-15T14:17:13;6.53;;;3.70;;
43646;SDS011;56152;49.996;18.980;2024-02-15T14:22:16;7.82;;;3.92;;
43646;SDS011;56152;49.996;18.980;2024-02-15T14:27:25;11.27;;;4.90;;
43646;SDS011;56152;49.996;18.980;2024-02-15T14:32:28;8.23;;;4.22;;
43646;SDS011;56152;49.996;18.980;2024-02-15T14:37:48;7.10;;;4.30;;
43646;SDS011;56152;49.996;18.980;2024-02-15T14:42:54;9.32;;;5.25;;
43646;SDS011;56152;49.996;18.980;2024-02-15T14:47:56;9.48;;;5.40;;
43646;SDS011;56152;49.996;18.980;2024-02-15T14:53:04;10.10;;;4.30;;
43646;SDS011;56152;49.996;18.980;2024-02-15T14:58:11;5.78;;;3.92;;
43646;SDS011;56152;49.996;18.980;2024-02-15T15:03:16;8.73;;;4.68;;
43646;SDS011;56152;49.996;18.980;2024-02-15T15:08:22;8.65;;;4.25;;
43646;SDS011;56152;49.996;18.980;2024-02-15T15:14:01;12.50;;;5.28;;
43646;SDS011;56152;49.996;18.980;2024-02-15T15:19:04;8.63;;;5.13;;
43646;SDS011;56152;49.996;18.980;2024-02-15T15:24:07;11.23;;;5.63;;
43646;SDS011;56152;49.996;18.980;2024-02-15T15:29:14;12.07;;;6.10;;
43646;SDS011;56152;49.996;18.980;2024-02-15T15:34:16;12.40;;;6.90;;
43646;SDS011;56152;49.996;18.980;2024-02-15T15:39:20;18.98;;;10.93;;
43646;SDS011;56152;49.996;18.980;2024-02-15T15:44:28;20.52;;;11.82;;
43646;SDS011;56152;49.996;18.980;2024-02-15T15:49:30;25.73;;;12.45;;
43646;SDS011;56152;49.996;18.980;2024-02-15T15:54:32;23.33;;;12.00;;
43646;SDS011;56152;49.996;18.980;2024-02-15T15:59:38;30.17;;;13.63;;
43646;SDS011;56152;49.996;18.980;2024-02-15T16:04:42;25.58;;;15.38;;
43646;SDS011;56152;49.996;18.980;2024-02-15T16:09:45;44.88;;;28.83;;
43646;SDS011;56152;49.996;18.980;2024-02-15T16:14:49;47.83;;;31.25;;
43646;SDS011;56152;49.996;18.980;2024-02-15T16:19:51;42.00;;;28.27;;
43646;SDS011;56152;49.996;18.980;2024-02-15T16:25:05;24.98;;;13.60;;
43646;SDS011;56152;49.996;18.980;2024-02-15T16:30:12;22.40;;;12.02;;
43646;SDS011;56152;49.996;18.980;2024-02-15T16:35:16;18.27;;;12.32;;
43646;SDS011;56152;49.996;18.980;2024-02-15T16:40:20;22.52;;;13.50;;
43646;SDS011;56152;49.996;18.980;2024-02-15T16:45:34;38.22;;;22.10;;
43646;SDS011;56152;49.996;18.980;2024-02-15T16:50:39;56.30;;;31.40;;
43646;SDS011;56152;49.996;18.980;2024-02-15T16:55:41;44.38;;;26.85;;
43646;SDS011;56152;49.996;18.980;2024-02-15T17:00:45;27.27;;;13.80;;
43646;SDS011;56152;49.996;18.980;2024-02-15T17:05:49;19.80;;;11.90;;
43646;SDS011;56152;49.996;18.980;2024-02-15T17:10:52;24.77;;;12.18;;
43646;SDS011;56152;49.996;18.980;2024-02-15T17:15:56;21.50;;;12.05;;
43646;SDS011;56152;49.996;18.980;2024-02-15T17:20:59;24.70;;;12.95;;
43646;SDS011;56152;49.996;18.980;2024-02-15T17:26:03;28.23;;;16.83;;
43646;SDS011;56152;49.996;18.980;2024-02-15T17:31:11;23.90;;;15.63;;
43646;SDS011;56152;49.996;18.980;2024-02-15T17:36:17;20.35;;;11.80;;
43646;SDS011;56152;49.996;18.980;2024-02-15T17:41:20;18.88;;;11.05;;
43646;SDS011;56152;49.996;18.980;2024-02-15T17:46:24;24.15;;;11.77;;
43646;SDS011;56152;49.996;18.980;2024-02-15T17:51:27;24.00;;;14.88;;
43646;SDS011;56152;49.996;18.980;2024-02-15T17:56:31;29.50;;;15.18;;
43646;SDS011;56152;49.996;18.980;2024-02-15T18:01:35;27.40;;;15.35;;
43646;SDS011;56152;49.996;18.980;2024-02-15T18:06:39;21.92;;;13.18;;
43646;SDS011;56152;49.996;18.980;2024-02-15T18:11:45;29.48;;;14.93;;
43646;SDS011;56152;49.996;18.980;2024-02-15T18:16:49;24.30;;;12.77;;
43646;SDS011;56152;49.996;18.980;2024-02-15T18:21:51;21.67;;;12.23;;
43646;SDS011;56152;49.996;18.980;2024-02-15T18:26:56;17.35;;;10.30;;
43646;SDS011;56152;49.996;18.980;2024-02-15T18:32:00;18.92;;;10.13;;
43646;SDS011;56152;49.996;18.980;2024-02-15T18:37:03;16.15;;;10.30;;
43646;SDS011;56152;49.996;18.980;2024-02-15T18:42:07;13.45;;;7.93;;
43646;SDS011;56152;49.996;18.980;2024-02-15T18:47:10;15.57;;;8.18;;
43646;SDS011;56152;49.996;18.980;2024-02-15T18:52:13;16.70;;;8.77;;
43646;SDS011;56152;49.996;18.980;2024-02-15T18:57:18;19.58;;;10.65;;
43646;SDS011;56152;49.996;18.980;2024-02-15T19:02:23;19.83;;;10.38;;
43646;SDS011;56152;49.996;18.980;2024-02-15T19:07:28;19.63;;;9.68;;
43646;SDS011;56152;49.996;18.980;2024-02-15T19:12:30;19.52;;;10.05;;
43646;SDS011;56152;49.996;18.980;2024-02-15T19:17:36;24.58;;;12.70;;
43646;SDS011;56152;49.996;18.980;2024-02-15T19:22:39;19.52;;;12.02;;
43646;SDS011;56152;49.996;18.980;2024-02-15T19:27:42;31.67;;;13.68;;
43646;SDS011;56152;49.996;18.980;2024-02-15T19:32:46;36.30;;;19.05;;
43646;SDS011;56152;49.996;18.980;2024-02-15T19:37:56;36.97;;;18.52;;
43646;SDS011;56152;49.996;18.980;2024-02-15T19:42:58;36.20;;;17.97;;
43646;SDS011;56152;49.996;18.980;2024-02-15T19:48:03;34.03;;;17.25;;
43646;SDS011;56152;49.996;18.980;2024-02-15T19:53:06;30.85;;;16.48;;
43646;SDS011;56152;49.996;18.980;2024-02-15T19:58:08;48.95;;;21.30;;
43646;SDS011;56152;49.996;18.980;2024-02-15T20:03:26;37.67;;;19.92;;
43646;SDS011;56152;49.996;18.980;2024-02-15T20:08:32;39.88;;;18.23;;
43646;SDS011;56152;49.996;18.980;2024-02-15T20:13:41;32.67;;;18.55;;
43646;SDS011;56152;49.996;18.980;2024-02-15T20:18:45;33.77;;;16.90;;
43646;SDS011;56152;49.996;18.980;2024-02-15T20:23:47;106.25;;;43.38;;
43646;SDS011;56152;49.996;18.980;2024-02-15T20:28:49;218.27;;;76.75;;
43646;SDS011;56152;49.996;18.980;2024-02-15T20:34:00;172.20;;;66.30;;
43646;SDS011;56152;49.996;18.980;2024-02-15T20:39:05;152.55;;;57.17;;
43646;SDS011;56152;49.996;18.980;2024-02-15T20:44:10;150.50;;;57.22;;
43646;SDS011;56152;49.996;18.980;2024-02-15T20:49:15;148.20;;;56.40;;
43646;SDS011;56152;49.996;18.980;2024-02-15T20:54:17;107.45;;;43.95;;
43646;SDS011;56152;49.996;18.980;2024-02-15T20:59:21;55.83;;;26.85;;
43646;SDS011;56152;49.996;18.980;2024-02-15T21:04:27;50.33;;;23.45;;
43646;SDS011;56152;49.996;18.980;2024-02-15T21:09:31;40.40;;;19.25;;
43646;SDS011;56152;49.996;18.980;2024-02-15T21:14:33;33.72;;;18.52;;
43646;SDS011;56152;49.996;18.980;2024-02-15T21:19:36;39.60;;;19.17;;
43646;SDS011;56152;49.996;18.980;2024-02-15T21:24:40;37.28;;;18.30;;
43646;SDS011;56152;49.996;18.980;2024-02-15T21:29:42;32.42;;;17.58;;
43646;SDS011;56152;49.996;18.980;2024-02-15T21:34:47;32.78;;;17.50;;
43646;SDS011;56152;49.996;18.980;2024-02-15T21:39:49;42.47;;;20.83;;
43646;SDS011;56152;49.996;18.980;2024-02-15T21:44:52;46.38;;;22.63;;
43646;SDS011;56152;49.996;18.980;2024-02-15T21:49:56;38.55;;;21.80;;
43646;SDS011;56152;49.996;18.980;2024-02-15T21:54:59;43.35;;;22.10;;
43646;SDS011;56152;49.996;18.980;2024-02-15T22:00:01;46.90;;;21.85;;
43646;SDS011;56152;49.996;18.980;2024-02-15T22:05:05;39.90;;;21.27;;
43646;SDS011;56152;49.996;18.980;2024-02-15T22:10:08;43.28;;;22.08;;
43646;SDS011;56152;49.996;18.980;2024-02-15T22:15:10;39.63;;;21.10;;
43646;SDS011;56152;49.996;18.980;2024-02-15T22:20:14;40.05;;;21.25;;
43646;SDS011;56152;49.996;18.980;2024-02-15T22:25:17;50.58;;;24.15;;
43646;SDS011;56152;49.996;18.980;2024-02-15T22:30:19;58.08;;;27.10;;
43646;SDS011;56152;49.996;18.980;2024-02-15T22:35:24;81.93;;;33.80;;
43646;SDS011;56152;49.996;18.980;2024-02-15T22:40:26;42.53;;;22.63;;
43646;SDS011;56152;49.996;18.980;2024-02-15T22:45:32;38.30;;;20.85;;
43646;SDS011;56152;49.996;18.980;2024-02-15T22:50:36;37.72;;;17.92;;
43646;SDS011;56152;49.996;18.980;2024-02-15T22:55:40;36.45;;;16.85;;
43646;SDS011;56152;49.996;18.980;2024-02-15T23:00:42;31.00;;;14.30;;
43646;SDS011;56152;49.996;18.980;2024-02-15T23:05:46;28.10;;;13.32;;
43646;SDS011;56152;49.996;18.980;2024-02-15T23:10:49;19.20;;;9.20;;
43646;SDS011;56152;49.996;18.980;2024-02-15T23:15:52;189.60;;;43.22;;
43646;SDS011;56152;49.996;18.980;2024-02-15T23:20:59;202.13;;;49.08;;
43646;SDS011;56152;49.996;18.980;2024-02-15T23:26:02;213.75;;;47.67;;
43646;SDS011;56152;49.996;18.980;2024-02-15T23:31:04;318.13;;;97.35;;
43646;SDS011;56152;49.996;18.980;2024-02-15T23:36:09;447.80;;;107.95;;
43646;SDS011;56152;49.996;18.980;2024-02-15T23:41:36;261.00;;;63.00;;
43646;SDS011;56152;49.996;18.980;2024-02-15T23:46:38;171.88;;;45.10;;
43646;SDS011;56152;49.996;18.980;2024-02-15T23:51:43;49.17;;;18.98;;
43646;SDS011;56152;49.996;18.980;2024-02-15T23:56:48;42.10;;;17.30;;
